Airfield :
LOGIN :

Register | Disclaimer

   EN    FR    IT 

 










Legend :    VFR   Marginal VFR   IFR   Intensive IFR   Very Intensive IFR
Visi :
Ceiling :
>= 8 km
>= 3000ft
5 to 8 km
1000 to 3000 ft
1500m to 5 km
500 to 1000 ft
800 to 1500m
200 to 500 ft
< 800m
< 200 ft
Symbols :   Thunderstorms  Fog  Heavy snow  Heavy precipitations  Wind > 20 kt
SIGMETs :     Misc.  Thunderstorms  Icing  Turbulence  Mountain Waves  Volcanic Ashes







- Airport Elevation : 171 ft
- IATA code : EGC
- Download approach charts


LFBE - Bergerac

CURRENT METAR :
  • 262130Z AUTO 06003KT 6000 NSC 12/11 Q1022

EXPIRED METARs :
  • 262100Z AUTO 07003KT 3000 BR NSC 12/11 Q1022
  • 262030Z AUTO 08003KT 2100 1400 R27/1900U BR NSC 12/11 Q1022
  • 262000Z AUTO VRB01KT 4900 BR FEW003 13/12 Q1022 BECMG 9999 NSW
  • 261930Z AUTO 00000KT 7000 NSC 13/12 Q1022 NOSIG
  • 261900Z AUTO 00000KT CAVOK 14/13 Q1022 NOSIG

TAF AMD TAF LFBE
Valid from the 26 at 12:00 until the 27 at 12:00 UTC


261257Z 2612/2712 20004KT 9999 BKN025
PROB30
TEMPO 2612/2614 BKN013
PROB40 2702/2707 0500 BCFG
No reported NOTAMs for that airfield.



MET'MAP, your aeronautical weather chart ! - Copyright ORBIFLY December 2007 - Disclaimer

ORBIFLY MET'MAP TEAM :

Programming & Development : Alexandra Zaïnal
Concept & Development : Baudouin d'Aumeries
Co-Development & Prog : Marc-Olivier Méhu
Technical & hardware support : Manuel Goepfert

Contact : metmap@orbifly.com




SOURCES & CREDITS :

   NOAA